Time;durP1;ratioP1;P1;durP2;ratioP2;P2;SDS_P1;SDS_P2;PMS_P1;PMS_P2;Temp;Humidity;BMP_temperature;BMP_pressure;BME280_temperature;BME280_humidity;BME280_pressure;Samples;Min_cycle;Max_cycle;Signal;HPM_P1;HPM_P2
2021/03/29 00:00:01;;;;;;;48.00;25.42;;;256.70;1305.60;;;;;;5023130;28;20038;-77
2021/03/29 00:02:27;;;;;;;40.00;22.27;;;256.80;1280.00;;;;;;5024495;28;20044;-77
2021/03/29 00:04:53;;;;;;;34.70;19.63;;;256.70;1280.00;;;;;;5022385;28;20017;-79
2021/03/29 00:07:21;;;;;;;40.05;20.42;;;256.20;1356.80;;;;;;5017523;28;20056;-76
2021/03/29 00:09:48;;;;;;;38.53;19.77;;;256.20;1408.00;;;;;;5018354;28;20014;-75
2021/03/29 00:12:16;;;;;;;44.60;22.27;;;256.10;1408.00;;;;;;5035681;28;20052;-79
2021/03/29 00:14:43;;;;;;;49.15;24.48;;;256.10;1382.40;;;;;;5038358;28;20048;-77
2021/03/29 00:17:10;;;;;;;46.70;22.98;;;256.10;1408.00;;;;;;5045457;28;20021;-82
2021/03/29 00:19:37;;;;;;;43.50;21.17;;;256.10;1382.40;;;;;;5044937;28;20040;-82
2021/03/29 00:22:04;;;;;;;40.47;21.65;;;256.00;1408.00;;;;;;5046420;28;20037;-81
2021/03/29 00:24:32;;;;;;;43.45;23.65;;;231.20;1433.60;;;;;;5045904;28;20392;-81
2021/03/29 00:26:58;;;;;;;54.05;27.20;;;231.10;1433.60;;;;;;5038096;28;20100;-76
2021/03/29 00:29:24;;;;;;;48.20;26.10;;;231.00;1459.20;;;;;;5049165;28;20480;-76
2021/03/29 00:31:50;;;;;;;;;;;230.70;1510.40;;;;;;5042577;28;20084;-80
2021/03/29 00:34:16;;;;;;;50.63;24.45;;;230.40;1561.60;;;;;;5044147;28;19911;-81
2021/03/29 00:36:43;;;;;;;50.00;22.67;;;205.70;1536.00;;;;;;5043012;28;20049;-80
2021/03/29 00:39:10;;;;;;;45.22;21.88;;;205.60;1561.60;;;;;;5045779;28;20021;-81
2021/03/29 00:41:36;;;;;;;49.22;22.67;;;205.40;1612.80;;;;;;5044149;28;20420;-79
2021/03/29 00:44:04;;;;;;;43.60;22.30;;;205.60;1561.60;;;;;;5041867;28;20025;-80
2021/03/29 00:46:31;;;;;;;45.85;23.15;;;205.70;1536.00;;;;;;5047369;28;20025;-77
2021/03/29 00:48:57;;;;;;;46.03;23.38;;;230.40;1536.00;;;;;;5043122;28;20569;-75
2021/03/29 00:51:27;;;;;;;46.45;22.65;;;230.50;1510.40;;;;;;5043942;28;20412;-83
2021/03/29 00:54:02;;;;;;;37.05;21.40;;;230.50;1536.00;;;;;;5042204;28;20009;-75
2021/03/29 00:56:29;;;;;;;44.22;23.23;;;230.40;1561.60;;;;;;5042241;28;20036;-84
2021/03/29 00:58:56;;;;;;;40.40;20.10;;;205.70;1561.60;;;;;;5044663;28;20083;-82
2021/03/29 01:01:39;;;;;;;40.53;21.05;;;230.40;1612.80;;;;;;5041669;28;20036;-82
2021/03/29 01:04:06;;;;;;;44.17;21.63;;;230.50;1612.80;;;;;;5043581;28;20024;-78
2021/03/29 01:06:35;;;;;;;43.83;20.45;;;230.50;1612.80;;;;;;5042210;28;20044;-81
2021/03/29 01:09:23;;;;;;;45.00;21.55;;;230.50;1612.80;;;;;;5041321;28;20075;-80
2021/03/29 01:11:53;;;;;;;39.10;21.63;;;230.50;1612.80;;;;;;5027859;28;20128;-79
2021/03/29 01:14:26;;;;;;;45.47;21.65;;;230.60;1612.80;;;;;;5022283;28;20013;-74
2021/03/29 01:17:17;;;;;;;38.83;19.75;;;230.50;1612.80;;;;;;5022121;28;20029;-75
2021/03/29 01:19:45;;;;;;;35.22;18.05;;;230.50;1612.80;;;;;;5023450;28;20493;-82
2021/03/29 01:22:13;;;;;;;39.72;18.77;;;230.50;1612.80;;;;;;5028829;28;20129;-77
2021/03/29 01:24:51;;;;;;;44.97;19.17;;;205.70;1612.80;;;;;;5022524;28;20107;-81
2021/03/29 01:27:23;;;;;;;36.63;19.08;;;205.70;1612.80;;;;;;5024509;28;20049;-78
2021/03/29 01:29:51;;;;;;;35.85;18.35;;;205.60;1638.40;;;;;;5022867;28;20021;-75
2021/03/29 01:32:17;;;;;;;34.42;18.48;;;205.20;1689.60;;;;;;5022713;28;20124;-75
2021/03/29 01:34:44;;;;;;;41.78;20.42;;;205.20;1689.60;;;;;;5024238;28;20061;-76
2021/03/29 01:37:11;;;;;;;45.28;21.80;;;205.00;1740.80;;;;;;5022979;28;20021;-74
2021/03/29 01:39:38;;;;;;;38.47;20.73;;;204.90;1689.60;;;;;;5022391;28;20104;-75
2021/03/29 01:42:05;;;;;;;40.10;20.13;;;180.10;1689.60;;;;;;5024053;28;20030;-74
2021/03/29 01:44:30;;;;;;;39.35;22.08;;;204.80;1689.60;;;;;;5022806;28;20014;-75
2021/03/29 01:46:56;;;;;;;;;;;179.90;1740.80;;;;;;5023040;28;20382;-82
2021/03/29 01:49:23;;;;;;;41.20;20.42;;;179.80;1740.80;;;;;;5017236;28;19913;-82
2021/03/29 01:51:51;;;;;;;45.25;20.38;;;179.80;1740.80;;;;;;5013585;28;20029;-82
2021/03/29 01:54:17;;;;;;;43.92;21.10;;;179.80;1766.40;;;;;;5013570;28;20439;-75
2021/03/29 01:56:44;;;;;;;42.45;20.65;;;179.90;1715.20;;;;;;5013560;28;20068;-75
2021/03/29 01:59:10;;;;;;;44.63;23.25;;;179.90;1740.80;;;;;;5013853;28;20064;-76
2021/03/29 02:01:35;;;;;;;;;;;179.70;1740.80;;;;;;5014151;28;20447;-80
2021/03/29 02:04:03;;;;;;;46.33;22.88;;;179.70;1740.80;;;;;;5013531;28;19906;-82
2021/03/29 02:06:29;;;;;;;49.60;22.75;;;179.50;1766.40;;;;;;5013482;28;20026;-77
2021/03/29 02:08:56;;;;;;;;;;;179.70;1740.80;;;;;;5013876;28;20104;-80
2021/03/29 02:11:23;;;;;;;49.00;23.60;;;179.80;1715.20;;;;;;5013036;28;19921;-76
2021/03/29 02:13:52;;;;;;;42.45;22.70;;;179.80;1715.20;;;;;;5013483;28;20038;-76
2021/03/29 02:16:18;;;;;;;41.03;21.08;;;179.80;1740.80;;;;;;5013364;28;20033;-76
2021/03/29 02:18:50;;;;;;;42.67;21.90;;;179.80;1740.80;;;;;;5013393;28;20054;-75
2021/03/29 02:21:22;;;;;;;45.55;22.40;;;179.70;1766.40;;;;;;5013053;28;20543;-75
2021/03/29 02:23:55;;;;;;;51.58;23.48;;;179.70;1740.80;;;;;;5013104;28;20038;-81
2021/03/29 02:26:22;;;;;;;51.38;22.40;;;179.70;1766.40;;;;;;5013268;28;20362;-80
2021/03/29 02:28:49;;;;;;;43.60;21.98;;;179.80;1740.80;;;;;;5013155;28;20076;-74
2021/03/29 02:31:17;;;;;;;50.30;22.48;;;179.70;1740.80;;;;;;5013203;28;20083;-80
2021/03/29 02:33:45;;;;;;;48.03;22.05;;;179.50;1766.40;;;;;;5013053;28;20112;-80
2021/03/29 02:36:11;;;;;;;44.83;24.08;;;179.40;1766.40;;;;;;5013087;28;20026;-79
2021/03/29 02:38:37;;;;;;;;;;;179.50;1766.40;;;;;;5013410;28;20040;-74
2021/03/29 02:41:04;;;;;;;42.17;21.15;;;179.40;1766.40;;;;;;5012838;28;20376;-80
2021/03/29 02:43:31;;;;;;;45.47;20.13;;;179.20;1817.60;;;;;;5012826;28;20049;-79
2021/03/29 02:46:00;;;;;;;46.80;20.88;;;154.50;1817.60;;;;;;5015545;28;20481;-80
2021/03/29 02:48:28;;;;;;;47.13;21.58;;;154.40;1817.60;;;;;;5016739;28;20022;-79
2021/03/29 02:50:57;;;;;;;46.80;23.38;;;154.50;1817.60;;;;;;5016643;28;20069;-75
2021/03/29 02:53:31;;;;;;;45.58;23.77;;;179.30;1766.40;;;;;;5016522;28;20026;-79
2021/03/29 02:56:08;;;;;;;45.20;21.67;;;179.50;1766.40;;;;;;5016559;28;20092;-75
2021/03/29 02:58:38;;;;;;;47.90;24.00;;;179.70;1715.20;;;;;;5016566;28;20036;-75
2021/03/29 03:01:08;;;;;;;53.72;23.58;;;179.90;1689.60;;;;;;5016508;28;20113;-77
2021/03/29 03:03:36;;;;;;;43.92;22.05;;;180.00;1689.60;;;;;;5016399;28;20099;-76
2021/03/29 03:06:02;;;;;;;48.75;25.27;;;180.00;1689.60;;;;;;5016494;28;20034;-83
2021/03/29 03:08:27;;;;;;;;;;;180.00;1664.00;;;;;;5016868;28;20107;-75
2021/03/29 03:10:53;;;;;;;48.03;23.50;;;180.10;1664.00;;;;;;5016082;28;19917;-75
2021/03/29 03:13:19;;;;;;;;;;;180.10;1664.00;;;;;;5016747;28;20038;-75
2021/03/29 03:15:46;;;;;;;56.17;27.67;;;180.10;1689.60;;;;;;5016398;28;19909;-75
2021/03/29 03:18:12;;;;;;;54.42;26.42;;;180.10;1689.60;;;;;;4997749;28;20045;-75
2021/03/29 03:20:39;;;;;;;;;;;180.10;1715.20;;;;;;5016366;28;20038;-77
2021/03/29 03:23:13;;;;;;;38.47;19.55;;;180.10;1715.20;;;;;;5015986;28;19968;-77
2021/03/29 03:25:50;;;;;;;54.28;26.88;;;204.80;1715.20;;;;;;5015842;28;20034;-75
2021/03/29 03:28:19;;;;;;;56.22;26.63;;;180.10;1715.20;;;;;;5015960;28;20402;-76
2021/03/29 03:30:49;;;;;;;65.85;26.88;;;180.00;1715.20;;;;;;5016005;28;20033;-80
2021/03/29 03:33:17;;;;;;;59.03;27.70;;;179.70;1766.40;;;;;;5015893;28;20037;-82
2021/03/29 03:35:43;;;;;;;66.20;28.27;;;179.70;1766.40;;;;;;5015978;28;20557;-82
2021/03/29 03:38:23;;;;;;;116.30;34.85;;;179.60;1792.00;;;;;;5015976;28;20034;-75
2021/03/29 03:41:03;;;;;;;59.80;27.95;;;179.40;1792.00;;;;;;5015787;28;20030;-82
2021/03/29 03:43:32;;;;;;;68.75;32.47;;;179.30;1817.60;;;;;;5015655;28;20459;-75
2021/03/29 03:46:19;;;;;;;64.18;30.38;;;179.40;1792.00;;;;;;5015757;28;20502;-76
2021/03/29 03:48:46;;;;;;;55.22;26.90;;;179.50;1792.00;;;;;;5015737;28;20022;-82
2021/03/29 03:51:12;;;;;;;57.70;26.60;;;179.70;1792.00;;;;;;5015700;28;20029;-76
2021/03/29 03:53:38;;;;;;;50.15;26.02;;;179.70;1792.00;;;;;;5015603;28;20026;-75
2021/03/29 03:56:04;;;;;;;;;;;179.70;1766.40;;;;;;5015794;28;20096;-75
2021/03/29 03:58:30;;;;;;;56.50;26.45;;;179.80;1766.40;;;;;;5015658;28;19909;-81
2021/03/29 04:00:57;;;;;;;;;;;180.00;1740.80;;;;;;5021993;28;20029;-75
2021/03/29 04:03:27;;;;;;;68.33;31.80;;;180.00;1740.80;;;;;;5034114;28;19913;-78
2021/03/29 04:05:54;;;;;;;63.35;29.42;;;180.00;1740.80;;;;;;5030444;28;20060;-79
2021/03/29 04:08:20;;;;;;;52.83;25.88;;;180.00;1766.40;;;;;;5015217;28;20021;-78
2021/03/29 04:10:55;;;;;;;;;;;179.80;1766.40;;;;;;5020050;28;20405;-75
2021/03/29 04:15:50;;;;;;;92.47;39.83;;;179.90;1740.80;;;;;;5035084;28;20040;-75
2021/03/29 04:18:16;;;;;;;57.33;26.77;;;179.80;1766.40;;;;;;5034828;28;20017;-74
2021/03/29 04:20:42;;;;;;;;;;;179.80;1766.40;;;;;;5035143;28;20500;-77
2021/03/29 04:23:08;;;;;;;43.53;24.30;;;179.80;1766.40;;;;;;5034570;28;19948;-75
2021/03/29 04:25:34;;;;;;;;;;;179.90;1766.40;;;;;;5035047;28;20019;-74
2021/03/29 04:28:00;;;;;;;55.45;24.40;;;179.90;1766.40;;;;;;5034492;28;19930;-78
2021/03/29 04:30:26;;;;;;;64.95;28.33;;;179.90;1766.40;;;;;;5037557;28;20029;-82
2021/03/29 04:32:53;;;;;;;66.35;30.02;;;179.70;1766.40;;;;;;5054674;28;20017;-75
2021/03/29 04:35:21;;;;;;;86.30;36.65;;;179.60;1843.20;;;;;;5036685;28;20032;-75
2021/03/29 04:37:49;;;;;;;76.82;34.92;;;154.40;1868.80;;;;;;5054437;28;20028;-75
2021/03/29 04:40:15;;;;;;;69.63;33.28;;;154.50;1843.20;;;;;;5053812;28;20091;-76
2021/03/29 04:42:41;;;;;;;70.85;33.58;;;179.20;1843.20;;;;;;5036182;28;20052;-75
2021/03/29 04:45:08;;;;;;;;;;;179.30;1843.20;;;;;;5054778;28;20104;-76
2021/03/29 04:47:34;;;;;;;;;;;179.20;1843.20;;;;;;5054717;28;19904;-79
2021/03/29 04:50:00;;;;;;;62.25;31.27;;;179.20;1843.20;;;;;;5054262;28;19904;-81
2021/03/29 04:52:25;;;;;;;;;;;179.30;1817.60;;;;;;5054161;28;20016;-75
2021/03/29 04:54:52;;;;;;;56.03;27.98;;;179.40;1817.60;;;;;;5054057;28;19909;-75
2021/03/29 04:57:18;;;;;;;52.42;26.67;;;179.50;1817.60;;;;;;5054063;28;20029;-76
2021/03/29 04:59:43;;;;;;;;;;;179.70;1817.60;;;;;;5054356;28;20033;-75
2021/03/29 05:02:10;;;;;;;46.60;25.38;;;179.80;1817.60;;;;;;5053532;28;20299;-75
2021/03/29 05:04:36;;;;;;;55.47;24.98;;;179.90;1792.00;;;;;;5053932;28;20028;-81
2021/03/29 05:07:07;;;;;;;;;;;180.10;1766.40;;;;;;5054098;28;20029;-75
2021/03/29 05:09:33;;;;;;;50.40;24.63;;;204.80;1740.80;;;;;;5053484;28;19962;-75
2021/03/29 05:12:07;;;;;;;;;;;204.80;1715.20;;;;;;5053770;28;20076;-75
2021/03/29 05:14:32;;;;;;;50.47;24.23;;;204.90;1689.60;;;;;;5053917;28;19904;-82
2021/03/29 05:16:58;;;;;;;;;;;204.90;1689.60;;;;;;5053980;28;20460;-75
2021/03/29 05:19:24;;;;;;;46.20;22.20;;;205.00;1689.60;;;;;;5046738;28;20476;-75
2021/03/29 05:21:49;;;;;;;;;;;205.10;1689.60;;;;;;5039324;28;20044;-75
2021/03/29 05:24:15;;;;;;;44.28;23.65;;;205.10;1766.40;;;;;;5033877;28;19909;-74
2021/03/29 05:26:41;;;;;;;;;;;205.10;1817.60;;;;;;5033835;28;20104;-74
2021/03/29 05:29:06;;;;;;;35.42;21.48;;;205.20;1843.20;;;;;;5033523;28;19908;-74
2021/03/29 05:31:39;;;;;;;;;;;205.30;1868.80;;;;;;5034209;28;20105;-75
2021/03/29 05:34:05;;;;;;;35.45;19.60;;;205.20;1945.60;;;;;;5033539;28;19905;-75
2021/03/29 05:36:31;;;;;;;;;;;205.40;1945.60;;;;;;5033852;28;20045;-75
2021/03/29 05:38:56;;;;;;;34.80;20.65;;;205.40;1945.60;;;;;;5033360;28;20422;-74
2021/03/29 05:41:22;;;;;;;;;;;205.50;1920.00;;;;;;5033804;28;20033;-74
2021/03/29 05:43:48;;;;;;;46.90;23.27;;;205.60;1894.40;;;;;;5033387;28;19956;-75
2021/03/29 05:46:14;;;;;;;44.13;23.50;;;205.60;1894.40;;;;;;5033219;28;20049;-74
2021/03/29 05:48:40;;;;;;;;;;;205.60;1868.80;;;;;;5033750;28;20111;-82
2021/03/29 05:51:07;;;;;;;45.17;21.85;;;205.70;1868.80;;;;;;5033378;28;19905;-75
2021/03/29 05:53:35;;;;;;;40.13;20.75;;;205.60;1894.40;;;;;;5033489;28;20053;-77
2021/03/29 05:56:02;;;;;;;40.50;22.63;;;205.70;1868.80;;;;;;5032933;28;20030;-80
2021/03/29 06:00:54;;;;;;;;;;;230.40;1843.20;;;;;;5033540;28;20025;-74
2021/03/29 06:03:36;;;;;;;40.17;21.38;;;230.40;1843.20;;;;;;5032954;28;19913;-74
2021/03/29 06:06:11;;;;;;;45.45;23.42;;;230.50;1843.20;;;;;;5033016;28;20029;-75
2021/03/29 06:08:50;;;;;;;40.53;22.33;;;230.60;1843.20;;;;;;5032997;28;20384;-80
2021/03/29 06:11:25;;;;;;;35.45;20.13;;;230.70;1817.60;;;;;;5032694;28;20048;-74
2021/03/29 06:14:05;;;;;;;34.10;21.20;;;230.60;1817.60;;;;;;5033072;28;20108;-82
2021/03/29 06:16:31;;;;;;;40.72;23.13;;;230.70;1792.00;;;;;;5033086;28;20026;-79
2021/03/29 06:18:56;;;;;;;;;;;230.70;1766.40;;;;;;5033317;28;20025;-79
2021/03/29 06:21:22;;;;;;;37.85;19.42;;;230.80;1740.80;;;;;;5036026;28;19905;-73
2021/03/29 06:23:58;;;;;;;;;;;230.80;1766.40;;;;;;5037504;28;20103;-75
2021/03/29 06:26:34;;;;;;;39.88;21.50;;;230.90;1792.00;;;;;;5037071;28;19905;-86
2021/03/29 06:29:17;;;;;;;33.50;20.27;;;231.00;1792.00;;;;;;5036849;28;20481;-75
2021/03/29 06:31:43;;;;;;;41.67;21.05;;;231.10;1792.00;;;;;;5036821;28;20034;-75
2021/03/29 06:34:09;;;;;;;;;;;231.20;1766.40;;;;;;5037252;28;20035;-74
2021/03/29 06:36:40;;;;;;;41.95;20.27;;;231.30;1766.40;;;;;;5036687;28;19959;-84
2021/03/29 06:39:24;;;;;;;38.50;22.08;;;231.30;1715.20;;;;;;5052396;28;20029;-75
2021/03/29 06:41:54;;;;;;;36.55;19.92;;;231.30;1715.20;;;;;;5047011;28;20041;-76
2021/03/29 06:44:41;;;;;;;47.03;22.83;;;256.00;1664.00;;;;;;5041733;28;20013;-74
2021/03/29 06:47:15;;;;;;;35.30;18.58;;;256.10;1612.80;;;;;;5046434;28;20588;-78
2021/03/29 06:49:42;;;;;;;33.03;20.45;;;256.20;1587.20;;;;;;5045533;28;20520;-80
2021/03/29 06:52:28;;;;;;;33.75;19.08;;;256.40;1587.20;;;;;;5049397;28;20057;-75
2021/03/29 06:55:14;;;;;;;29.83;15.38;;;256.50;1561.60;;;;;;5049013;28;20117;-81
2021/03/29 06:57:40;;;;;;;30.10;15.95;;;256.60;1536.00;;;;;;5046618;28;20027;-80
2021/03/29 07:00:06;;;;;;;;;;;256.60;1510.40;;;;;;5050946;28;20107;-78
2021/03/29 07:02:38;;;;;;;26.77;14.20;;;256.90;1510.40;;;;;;5055967;28;19920;-75
2021/03/29 07:05:04;;;;;;;22.55;12.95;;;256.90;1459.20;;;;;;5055670;28;20067;-74
2021/03/29 07:07:30;;;;;;;25.27;13.15;;;281.70;1433.60;;;;;;5055971;28;20484;-75
2021/03/29 07:09:58;;;;;;;22.20;13.00;;;281.70;1408.00;;;;;;5055797;28;20366;-75
2021/03/29 07:12:31;;;;;;;29.77;12.30;;;281.90;1408.00;;;;;;5055530;28;20084;-82
2021/03/29 07:15:01;;;;;;;21.80;12.38;;;282.00;1408.00;;;;;;5055941;28;20527;-74
2021/03/29 07:17:29;;;;;;;21.65;12.27;;;282.20;1382.40;;;;;;5055769;28;20029;-75
2021/03/29 07:19:56;;;;;;;21.08;11.68;;;282.20;1382.40;;;;;;5054804;28;20100;-75
2021/03/29 07:22:23;;;;;;;22.85;11.18;;;282.20;1356.80;;;;;;5055508;28;20036;-76
2021/03/29 07:24:49;;;;;;;19.02;10.15;;;282.30;1331.20;;;;;;5055365;28;20025;-75
2021/03/29 07:27:18;;;;;;;16.48;8.15;;;282.40;1305.60;;;;;;5055476;28;20025;-75
2021/03/29 07:29:48;;;;;;;17.60;9.05;;;282.30;1280.00;;;;;;5055167;28;20024;-75
2021/03/29 07:32:31;;;;;;;16.40;9.35;;;282.30;1305.60;;;;;;5053675;28;20032;-80
2021/03/29 07:34:58;;;;;;;16.50;8.82;;;282.50;1305.60;;;;;;5050504;28;20022;-76
2021/03/29 07:37:28;;;;;;;22.85;9.90;;;307.30;1331.20;;;;;;5040100;28;20021;-76
2021/03/29 07:39:54;;;;;;;20.42;9.68;;;307.40;1331.20;;;;;;5049225;28;20126;-76
2021/03/29 07:42:23;;;;;;;19.80;10.35;;;307.30;1331.20;;;;;;5054278;28;20052;-79
2021/03/29 07:44:57;;;;;;;23.75;10.52;;;307.40;1382.40;;;;;;5054915;28;20032;-77
2021/03/29 07:47:39;;;;;;;18.23;9.82;;;307.40;1356.80;;;;;;5054913;28;20025;-76
2021/03/29 07:50:07;;;;;;;16.23;8.85;;;307.50;1382.40;;;;;;5036706;28;20033;-78
2021/03/29 07:52:38;;;;;;;23.30;9.55;;;307.70;1305.60;;;;;;5040781;28;20017;-78
2021/03/29 07:55:17;;;;;;;18.30;9.48;;;307.80;1305.60;;;;;;5051598;28;20033;-75
2021/03/29 07:57:43;;;;;;;18.02;8.65;;;308.00;1305.60;;;;;;5044907;28;20079;-75
2021/03/29 08:00:30;;;;;;;21.77;10.50;;;308.00;1280.00;;;;;;5047070;28;20056;-75
2021/03/29 08:03:00;;;;;;;19.30;8.77;;;308.10;1305.60;;;;;;4993215;28;20054;-76
2021/03/29 08:05:38;;;;;;;18.48;9.45;;;332.90;1280.00;;;;;;4991098;28;20035;-75
2021/03/29 08:08:27;;;;;;;16.98;7.63;;;332.90;1305.60;;;;;;4989404;28;20042;-74
2021/03/29 08:11:08;;;;;;;19.05;7.35;;;333.00;1254.40;;;;;;4982341;28;20054;-75
2021/03/29 08:13:41;;;;;;;15.90;8.77;;;332.90;1228.80;;;;;;4983326;28;20049;-75
2021/03/29 08:16:16;;;;;;;16.23;7.63;;;333.00;1280.00;;;;;;4974019;28;20031;-75
2021/03/29 08:19:24;;;;;;;20.38;8.88;;;333.00;1254.40;;;;;;4980341;28;20026;-81
2021/03/29 08:21:55;;;;;;;17.67;6.72;;;333.10;1254.40;;;;;;4977066;28;20536;-80
2021/03/29 08:24:32;;;;;;;14.27;7.07;;;333.00;1254.40;;;;;;4975309;28;20105;-78
2021/03/29 08:27:06;;;;;;;17.88;8.10;;;333.10;1254.40;;;;;;4973500;28;20562;-78
2021/03/29 08:29:33;;;;;;;20.20;6.43;;;333.20;1280.00;;;;;;4973548;28;20033;-79
2021/03/29 08:32:09;;;;;;;18.98;6.60;;;333.20;1280.00;;;;;;4973635;28;20022;-80
2021/03/29 08:34:36;;;;;;;16.30;7.30;;;333.20;1305.60;;;;;;4973537;28;20138;-79
2021/03/29 08:37:05;;;;;;;13.07;6.47;;;333.30;1305.60;;;;;;4973444;28;20035;-80
2021/03/29 08:39:33;;;;;;;10.65;4.72;;;333.30;1305.60;;;;;;4977198;28;20432;-83
2021/03/29 08:42:00;;;;;;;9.82;4.13;;;333.40;1228.80;;;;;;5047977;28;20036;-75
2021/03/29 08:44:31;;;;;;;10.45;4.20;;;333.50;1177.60;;;;;;5044305;28;20017;-81
2021/03/29 08:46:57;;;;;;;7.45;4.25;;;333.60;1177.60;;;;;;5044026;28;20022;-80
2021/03/29 08:49:25;;;;;;;9.05;3.80;;;333.60;1177.60;;;;;;5045174;28;20104;-75
2021/03/29 08:51:52;;;;;;;8.98;3.95;;;333.70;1126.40;;;;;;5043179;28;20019;-81
2021/03/29 08:54:19;;;;;;;7.60;4.00;;;358.40;1126.40;;;;;;5045020;28;20546;-76
2021/03/29 08:56:48;;;;;;;13.63;4.40;;;358.50;1126.40;;;;;;5042478;28;20025;-74
2021/03/29 08:59:15;;;;;;;9.15;4.78;;;358.50;1126.40;;;;;;5044985;28;20021;-75
2021/03/29 09:01:42;;;;;;;15.77;5.65;;;358.50;1126.40;;;;;;5053692;28;20032;-81
2021/03/29 09:04:11;;;;;;;11.32;5.07;;;358.60;1152.00;;;;;;5053748;28;20033;-75
2021/03/29 09:06:37;;;;;;;12.65;4.70;;;358.80;1152.00;;;;;;5053749;28;20021;-79
2021/03/29 09:09:30;;;;;;;9.63;4.28;;;359.00;1152.00;;;;;;5053543;28;20139;-75
2021/03/29 09:11:55;;;;;;;11.57;4.28;;;359.10;1100.80;;;;;;5048990;28;20049;-74
2021/03/29 09:14:21;;;;;;;9.05;4.65;;;359.10;1100.80;;;;;;5053359;28;20028;-77
2021/03/29 09:16:57;;;;;;;11.85;4.38;;;359.20;1100.80;;;;;;5053717;28;20386;-75
2021/03/29 09:19:23;;;;;;;11.60;5.00;;;359.30;1100.80;;;;;;5046772;28;20020;-74
2021/03/29 09:21:59;;;;;;;12.23;4.88;;;359.30;1100.80;;;;;;5039019;28;20038;-77
2021/03/29 09:24:27;;;;;;;12.52;4.65;;;359.30;1126.40;;;;;;5053205;28;20025;-78
2021/03/29 09:27:12;;;;;;;8.15;3.65;;;384.30;1100.80;;;;;;5052796;28;20058;-76
2021/03/29 09:29:41;;;;;;;5.10;2.72;;;384.40;1075.20;;;;;;5042986;28;20100;-76
2021/03/29 09:32:12;;;;;;;11.40;4.07;;;384.40;1024.00;;;;;;5041008;28;20103;-75
2021/03/29 09:34:39;;;;;;;7.85;2.88;;;384.60;972.80;;;;;;5033307;28;20018;-79
2021/03/29 09:37:18;;;;;;;10.38;3.45;;;384.70;998.40;;;;;;5033228;28;20022;-76
2021/03/29 09:39:44;;;;;;;8.43;3.45;;;384.70;972.80;;;;;;5033138;28;20065;-74
2021/03/29 09:42:10;;;;;;;9.88;3.80;;;384.90;998.40;;;;;;5033150;28;20033;-78
2021/03/29 09:44:35;;;;;;;11.60;4.20;;;384.90;972.80;;;;;;5033100;28;20032;-76
2021/03/29 09:47:01;;;;;;;9.80;4.20;;;409.70;1024.00;;;;;;5033171;28;20083;-80
2021/03/29 09:49:30;;;;;;;9.32;4.25;;;409.90;972.80;;;;;;5033005;28;20651;-79
2021/03/29 09:52:08;;;;;;;8.55;3.72;;;410.00;972.80;;;;;;5033156;28;20101;-79
2021/03/29 09:54:37;;;;;;;9.07;3.78;;;410.20;998.40;;;;;;5033052;28;20020;-79
2021/03/29 09:57:18;;;;;;;12.38;4.47;;;410.30;947.20;;;;;;5033465;28;20029;-82
2021/03/29 09:59:44;;;;;;;9.35;4.00;;;410.40;972.80;;;;;;5033188;28;20091;-82
2021/03/29 10:02:27;;;;;;;6.63;3.60;;;435.20;1024.00;;;;;;5033270;28;20033;-78
2021/03/29 10:05:01;;;;;;;7.55;4.00;;;435.30;947.20;;;;;;5033395;28;20100;-86
2021/03/29 10:07:27;;;;;;;9.18;4.18;;;435.30;921.60;;;;;;5044296;28;20082;-83
2021/03/29 10:10:05;;;;;;;8.80;3.95;;;;;;;;;;5053155;28;20021;-83
2021/03/29 10:12:32;;;;;;;6.97;4.03;;;435.60;972.80;;;;;;5053202;28;20053;-83
2021/03/29 10:15:08;;;;;;;10.55;4.78;;;435.90;972.80;;;;;;5052947;28;20025;-82
2021/03/29 10:17:34;;;;;;;13.82;5.03;;;436.00;921.60;;;;;;5034997;28;20035;-80
2021/03/29 10:20:11;;;;;;;8.70;4.90;;;460.80;921.60;;;;;;5052719;28;20025;-76
2021/03/29 10:22:37;;;;;;;10.65;4.80;;;460.80;896.00;;;;;;5052498;28;20469;-79
2021/03/29 10:25:13;;;;;;;8.48;4.25;;;461.00;896.00;;;;;;5052664;28;20021;-78
2021/03/29 10:27:55;;;;;;;12.65;4.97;;;461.20;896.00;;;;;;5052332;28;20021;-78
2021/03/29 10:30:28;;;;;;;10.63;4.45;;;461.30;921.60;;;;;;5039408;28;20028;-76
2021/03/29 10:32:59;;;;;;;7.82;4.15;;;461.50;896.00;;;;;;5037830;28;20037;-74
2021/03/29 10:35:27;;;;;;;6.72;4.30;;;461.70;870.40;;;;;;5032243;28;20088;-76
2021/03/29 10:37:53;;;;;;;8.32;3.88;;;486.40;819.20;;;;;;5035166;28;20444;-77
2021/03/29 10:40:20;;;;;;;8.55;4.30;;;486.50;819.20;;;;;;5040237;28;20385;-74
2021/03/29 10:42:47;;;;;;;8.35;3.75;;;486.60;819.20;;;;;;5042895;28;20127;-79
2021/03/29 10:45:15;;;;;;;8.40;3.72;;;486.60;870.40;;;;;;5043151;28;20039;-75
2021/03/29 10:47:41;;;;;;;6.35;3.78;;;486.70;844.80;;;;;;5040190;28;20090;-79
2021/03/29 10:50:09;;;;;;;10.98;4.55;;;486.80;819.20;;;;;;5040245;28;20063;-77
2021/03/29 10:52:36;;;;;;;10.52;4.25;;;486.70;844.80;;;;;;5042388;28;20067;-76
2021/03/29 10:55:02;;;;;;;9.20;3.83;;;487.00;819.20;;;;;;5045193;28;20536;-76
2021/03/29 10:57:28;;;;;;;5.55;4.03;;;487.00;793.60;;;;;;5042253;28;20481;-75
2021/03/29 10:59:54;;;;;;;12.13;4.32;;;487.10;768.00;;;;;;5043293;28;20021;-78
2021/03/29 11:02:21;;;;;;;10.30;3.75;;;487.10;793.60;;;;;;5041125;28;20092;-78
2021/03/29 11:04:46;;;;;;;11.60;4.15;;;487.10;844.80;;;;;;5041464;28;20026;-82
2021/03/29 11:07:12;;;;;;;13.95;3.78;;;512.10;768.00;;;;;;5043911;28;20083;-81
2021/03/29 11:09:40;;;;;;;12.55;5.10;;;512.20;768.00;;;;;;5046673;28;20025;-74
2021/03/29 11:12:07;;;;;;;12.73;4.72;;;512.60;768.00;;;;;;5045211;28;20076;-75
2021/03/29 11:14:33;;;;;;;8.07;4.43;;;512.40;793.60;;;;;;5047269;28;20436;-75
2021/03/29 11:16:59;;;;;;;10.73;3.92;;;512.60;793.60;;;;;;5044425;28;20097;-73
2021/03/29 11:19:25;;;;;;;8.35;4.03;;;512.70;742.40;;;;;;5046869;28;20025;-74
2021/03/29 11:21:52;;;;;;;6.95;3.47;;;512.70;742.40;;;;;;5044484;28;20112;-75
2021/03/29 11:24:22;;;;;;;6.80;3.35;;;512.80;716.80;;;;;;5046206;28;20021;-74
2021/03/29 11:26:48;;;;;;;11.27;5.15;;;512.90;716.80;;;;;;5045584;28;20564;-74
2021/03/29 11:29:14;;;;;;;5.10;3.08;;;512.80;793.60;;;;;;5044002;28;20029;-79
2021/03/29 11:31:42;;;;;;;12.15;3.63;;;512.50;742.40;;;;;;5044300;28;20013;-78
2021/03/29 11:34:09;;;;;;;9.27;4.00;;;512.70;793.60;;;;;;5044815;28;20021;-73
2021/03/29 11:36:35;;;;;;;9.65;4.13;;;512.70;742.40;;;;;;5046095;28;20029;-75
2021/03/29 11:39:01;;;;;;;7.75;3.50;;;487.30;793.60;;;;;;5046246;28;20029;-82
2021/03/29 11:41:26;;;;;;;7.60;3.33;;;486.50;819.20;;;;;;5045387;28;20021;-76
2021/03/29 11:43:52;;;;;;;9.63;3.83;;;461.50;844.80;;;;;;5045703;28;20029;-74
2021/03/29 11:46:18;;;;;;;9.73;3.45;;;486.40;844.80;;;;;;5045220;28;20032;-78
2021/03/29 11:48:44;;;;;;;8.35;3.50;;;486.70;793.60;;;;;;5044175;28;20422;-77
2021/03/29 11:51:10;;;;;;;7.32;3.92;;;487.00;793.60;;;;;;5046562;28;20116;-75
2021/03/29 11:53:36;;;;;;;10.57;4.15;;;487.20;793.60;;;;;;5046067;28;20025;-75
2021/03/29 11:56:04;;;;;;;12.40;4.63;;;512.10;742.40;;;;;;5043715;28;20067;-73
2021/03/29 11:58:29;;;;;;;10.52;5.78;;;512.00;768.00;;;;;;5044247;28;20025;-78
2021/03/29 12:01:06;;;;;;;10.35;4.00;;;512.30;768.00;;;;;;5044406;28;20051;-82
2021/03/29 12:03:37;;;;;;;7.68;3.80;;;512.50;716.80;;;;;;5042909;28;20811;-74
2021/03/29 12:06:07;;;;;;;10.02;4.82;;;512.30;793.60;;;;;;5045726;28;20053;-79
2021/03/29 12:09:15;;;;;;;13.80;5.13;;;512.50;768.00;;;;;;5044420;28;20021;-74
2021/03/29 12:14:40;;;;;;;11.90;6.07;;;512.20;793.60;;;;;;4973128;28;20070;-79
2021/03/29 12:17:11;;;;;;;10.35;4.03;;;537.70;768.00;;;;;;4972302;28;20019;-74
2021/03/29 12:19:38;;;;;;;8.88;3.38;;;537.90;819.20;;;;;;4972982;28;20030;-74
2021/03/29 12:22:20;;;;;;;7.57;4.32;;;537.60;691.20;;;;;;4973216;28;20043;-78
2021/03/29 12:24:50;;;;;;;10.52;3.75;;;537.70;768.00;;;;;;4973254;28;20031;-78
2021/03/29 12:27:17;;;;;;;12.32;5.20;;;512.90;742.40;;;;;;4972897;28;20027;-77
2021/03/29 12:29:45;;;;;;;9.40;5.00;;;537.80;716.80;;;;;;4974724;28;20066;-76
2021/03/29 12:32:17;;;;;;;10.13;4.43;;;537.90;691.20;;;;;;4972338;28;20031;-74
2021/03/29 12:34:46;;;;;;;16.35;9.50;;;537.80;716.80;;;;;;4972883;28;20158;-79